Time;durP1;ratioP1;P1;durP2;ratioP2;P2;SDS_P1;SDS_P2;PMS_P1;PMS_P2;Temp;Humidity;BMP_temperature;BMP_pressure;BME280_temperature;BME280_humidity;BME280_pressure;Samples;Min_cycle;Max_cycle;Signal;HPM_P1;HPM_P2
2023/06/09 00:01:01;;;;;;;;;16.60;16.60;;;;;19.25;68.28;98970.19;5068604;28;8888;-80
2023/06/09 00:03:50;;;;;;;;;19.00;16.80;;;;;19.29;67.86;98969.91;5046975;28;9008;-82
2023/06/09 00:06:22;;;;;;;;;21.40;20.40;;;;;19.34;68.11;98964.25;5055780;28;8860;-84
2023/06/09 00:08:52;;;;;;;;;18.20;16.40;;;;;19.38;68.15;98965.75;5066953;28;8890;-79
2023/06/09 00:11:21;;;;;;;;;18.60;18.00;;;;;19.36;66.97;98967.66;5066555;28;8894;-79
2023/06/09 00:13:52;;;;;;;;;17.20;17.00;;;;;19.36;66.70;98961.50;5067103;28;9597;-78
2023/06/09 00:16:23;;;;;;;;;19.00;18.20;;;;;19.33;66.79;98967.91;5063296;28;8952;-81
2023/06/09 00:18:53;;;;;;;;;15.20;15.00;;;;;19.25;67.17;98962.19;5046895;28;8841;-79
2023/06/09 00:21:25;;;;;;;;;18.20;17.20;;;;;19.27;67.04;98962.94;5056036;28;8895;-82
2023/06/09 00:23:55;;;;;;;;;19.40;17.00;;;;;19.30;66.82;98970.75;5066376;28;8848;-79
2023/06/09 00:26:25;;;;;;;;;16.80;16.80;;;;;19.32;66.69;98964.34;5049640;28;8839;-80
2023/06/09 00:28:55;;;;;;;;;16.60;16.40;;;;;19.28;66.89;98962.00;5066398;28;8859;-80
2023/06/09 00:31:24;;;;;;;;;16.20;16.00;;;;;19.19;65.95;98957.28;5015992;28;8844;-81
2023/06/09 00:33:53;;;;;;;;;17.00;17.00;;;;;19.13;66.10;98966.53;5050239;28;8865;-80
2023/06/09 00:36:22;;;;;;;;;15.20;14.40;;;;;19.05;65.56;98967.03;5071581;28;9520;-80
2023/06/09 00:38:51;;;;;;;;;17.60;17.60;;;;;19.08;66.42;98973.97;5030713;28;8860;-80
2023/06/09 00:41:19;;;;;;;;;19.00;17.20;;;;;19.13;67.09;98983.38;5047313;28;8861;-84
2023/06/09 00:43:48;;;;;;;;;17.00;16.40;;;;;19.21;67.02;98984.69;5048706;28;8954;-84
2023/06/09 00:46:19;;;;;;;;;17.40;17.40;;;;;19.26;66.92;98974.59;5047789;28;10128;-82
2023/06/09 00:48:48;;;;;;;;;16.80;16.00;;;;;19.25;66.20;98976.41;5047313;28;8888;-81
2023/06/09 00:51:18;;;;;;;;;18.40;18.40;;;;;19.26;66.54;98974.59;5046054;28;8845;-79
2023/06/09 00:53:47;;;;;;;;;28.60;24.00;;;;;19.30;66.67;98979.59;5046950;28;8869;-81
2023/06/09 00:56:18;;;;;;;;;23.00;21.60;;;;;19.28;66.33;98980.66;5047449;28;8881;-81
2023/06/09 00:58:47;;;;;;;;;20.20;20.20;;;;;19.29;65.75;98985.91;5013351;28;8844;-80
2023/06/09 01:01:16;;;;;;;;;20.80;20.80;;;;;19.28;66.28;98984.16;5080382;28;8882;-81
2023/06/09 01:03:48;;;;;;;;;22.80;22.20;;;;;19.26;66.40;98986.09;5048130;28;8967;-81
2023/06/09 01:06:30;;;;;;;;;22.60;19.00;;;;;19.35;66.15;98984.63;5053536;28;8860;-80
2023/06/09 01:09:03;;;;;;;;;20.40;19.20;;;;;19.31;66.43;98983.97;5063197;28;8833;-80
2023/06/09 01:11:42;;;;;;;;;16.00;16.00;;;;;19.36;66.48;98990.81;5063387;28;8890;-81
2023/06/09 01:14:20;;;;;;;;;22.80;22.60;;;;;19.20;66.26;98991.81;5030100;28;8861;-82
2023/06/09 01:16:54;;;;;;;;;24.00;23.00;;;;;19.23;66.37;98988.09;5030977;28;8896;-83
2023/06/09 01:19:32;;;;;;;;;23.80;22.20;;;;;19.38;67.06;98991.56;5047861;28;8868;-80
2023/06/09 01:22:07;;;;;;;;;19.60;18.80;;;;;19.39;66.95;98985.28;5092672;28;8847;-79
2023/06/09 01:24:47;;;;;;;;;25.60;22.20;;;;;19.55;67.03;98982.47;5072174;28;8875;-82
2023/06/09 01:27:21;;;;;;;;;21.20;21.20;;;;;19.49;66.23;98981.88;5083695;28;8854;-81
2023/06/09 01:29:53;;;;;;;;;23.80;21.40;;;;;19.45;65.91;98975.06;5066751;28;8854;-83
2023/06/09 01:32:24;;;;;;;;;24.20;22.60;;;;;19.40;65.81;98971.84;5087651;28;8870;-79
2023/06/09 01:34:55;;;;;;;;;22.40;22.40;;;;;19.38;66.56;98972.91;5073488;28;8957;-80
2023/06/09 01:37:23;;;;;;;;;21.20;20.00;;;;;19.40;66.20;98971.84;5066158;28;8870;-80
2023/06/09 01:39:53;;;;;;;;;25.80;25.40;;;;;19.33;66.41;98963.41;5032815;28;8945;-80
2023/06/09 01:42:23;;;;;;;;;26.20;23.40;;;;;19.22;66.10;98957.94;5048180;28;8897;-81
2023/06/09 01:44:52;;;;;;;;;23.00;23.00;;;;;19.18;66.19;98966.22;5033270;28;8982;-81
2023/06/09 01:47:21;;;;;;;;;22.80;21.20;;;;;19.17;66.10;98969.84;5083273;28;8829;-82
2023/06/09 01:50:02;;;;;;;;;22.80;22.20;;;;;19.21;65.76;98968.69;5067245;28;8887;-80
2023/06/09 01:52:40;;;;;;;;;22.20;22.20;;;;;19.19;65.87;98959.94;5048720;28;8844;-81
2023/06/09 01:55:15;;;;;;;;;29.00;27.20;;;;;19.14;66.00;98960.28;5065328;28;8856;-81
2023/06/09 01:57:51;;;;;;;;;26.00;25.20;;;;;19.10;65.93;98959.63;5048413;28;8856;-83
2023/06/09 02:00:24;;;;;;;;;27.40;25.00;;;;;19.07;66.12;98951.81;5045942;28;8882;-80
2023/06/09 02:02:55;;;;;;;;;28.20;25.60;;;;;19.07;66.42;98953.63;5068020;28;8846;-79
2023/06/09 02:05:25;;;;;;;;;23.60;23.60;;;;;19.05;66.16;98951.06;5079969;28;8877;-80
2023/06/09 02:07:55;;;;;;;;;23.80;22.60;;;;;19.08;66.81;98948.22;5064215;28;9010;-81
2023/06/09 02:10:25;;;;;;;;;22.60;22.60;;;;;19.09;66.84;98947.22;5015591;28;8910;-81
2023/06/09 02:12:56;;;;;;;;;26.40;23.80;;;;;19.12;66.89;98947.03;4990920;28;8996;-84
2023/06/09 02:15:24;;;;;;;;;26.40;26.00;;;;;19.10;66.73;98943.63;5056086;28;8851;-81
2023/06/09 02:17:54;;;;;;;;;27.20;24.60;;;;;19.09;66.33;98939.25;5078569;28;9424;-82
2023/06/09 02:20:23;;;;;;;;;27.80;26.60;;;;;19.05;65.92;98951.06;5062916;28;8910;-83
2023/06/09 02:22:52;;;;;;;;;32.40;30.60;;;;;18.97;65.86;98952.50;4982353;28;9610;-80
2023/06/09 02:25:21;;;;;;;;;26.20;25.20;;;;;18.83;66.00;98948.94;5048576;28;8867;-80
2023/06/09 02:27:50;;;;;;;;;29.00;28.80;;;;;18.75;66.22;98948.56;5047745;28;8843;-81
2023/06/09 02:30:21;;;;;;;;;27.00;25.20;;;;;18.79;66.84;98954.56;5012234;28;8831;-80
2023/06/09 02:32:49;;;;;;;;;31.20;28.60;;;;;18.71;66.54;98961.22;5045460;28;8875;-84
2023/06/09 02:35:18;;;;;;;;;32.20;28.80;;;;;18.73;66.58;98961.97;5042494;28;8871;-79
2023/06/09 02:37:47;;;;;;;;;32.80;31.00;;;;;18.27;67.75;98959.56;5043111;28;8895;-83
2023/06/09 02:40:16;;;;;;;;;32.20;30.00;;;;;17.61;70.10;98963.53;5064339;28;8945;-80
2023/06/09 02:42:45;;;;;;;;;31.80;31.00;;;;;18.01;69.43;98963.78;5031473;28;8852;-81
2023/06/09 02:45:14;;;;;;;;;30.40;27.20;;;;;18.01;69.03;98966.44;5048126;28;9519;-84
2023/06/09 02:47:45;;;;;;;;;33.40;32.60;;;;;17.82;69.65;98961.41;5031465;28;8848;-80
2023/06/09 02:50:16;;;;;;;;;36.80;33.00;;;;;18.05;69.18;98969.81;5031062;28;8930;-83
2023/06/09 02:52:46;;;;;;;;;32.20;31.20;;;;;18.08;69.30;98961.63;5070024;28;8997;-82
2023/06/09 02:55:15;;;;;;;;;29.60;29.00;;;;;18.25;69.17;98957.94;5089154;28;8875;-80
2023/06/09 02:57:47;;;;;;;;;31.80;30.00;;;;;18.37;68.63;98959.84;5089698;28;9962;-79
2023/06/09 03:00:19;;;;;;;;;33.20;31.40;;;;;18.46;68.08;98955.72;5089895;28;8922;-81
2023/06/09 03:02:51;;;;;;;;;31.80;31.40;;;;;18.49;67.99;98955.53;5051539;28;8845;-79
2023/06/09 03:05:24;;;;;;;;;36.60;32.20;;;;;18.54;67.92;98956.13;5034157;28;8941;-81
2023/06/09 03:07:55;;;;;;;;;39.20;34.80;;;;;18.57;67.57;98963.03;5068220;28;8983;-80
2023/06/09 03:10:25;;;;;;;;;50.00;42.00;;;;;18.60;67.63;98960.19;5084876;28;8846;-80
2023/06/09 03:12:54;;;;;;;;;59.50;48.25;;;;;18.59;67.52;98963.78;5085023;28;8863;-81
2023/06/09 03:15:23;;;;;;;;;35.60;32.80;;;;;18.65;66.88;98961.59;5051083;28;8968;-81
2023/06/09 03:17:53;;;;;;;;;41.60;35.00;;;;;18.59;66.97;98967.31;5068555;28;8857;-80
2023/06/09 03:20:24;;;;;;;;;38.20;32.40;;;;;18.57;67.00;98961.22;5061111;28;8861;-80
2023/06/09 03:22:54;;;;;;;;;33.00;31.00;;;;;18.53;67.27;98965.03;5015912;28;8867;-80
2023/06/09 03:25:25;;;;;;;;;33.20;31.60;;;;;18.55;67.42;98964.00;5029357;28;8857;-81
2023/06/09 03:27:55;;;;;;;;;48.75;42.00;;;;;18.61;67.27;98962.75;5051512;28;8865;-80
2023/06/09 03:30:24;;;;;;;;;56.50;45.75;;;;;18.66;67.71;98970.44;5051406;28;8910;-83
2023/06/09 03:32:54;;;;;;;;;42.00;34.75;;;;;18.71;67.91;98966.53;5051939;28;8841;-80
2023/06/09 03:35:23;;;;;;;;;40.40;36.20;;;;;18.74;67.46;98970.78;5102888;28;8976;-80
2023/06/09 03:37:52;;;;;;;;;35.60;33.40;;;;;18.74;67.99;98977.00;5068892;28;9078;-80
2023/06/09 03:40:22;;;;;;;;;33.60;32.00;;;;;18.77;67.72;98975.94;5068898;28;9693;-80
2023/06/09 03:42:50;;;;;;;;;34.60;32.60;;;;;18.74;67.38;98970.78;5070095;28;9623;-80
2023/06/09 03:45:19;;;;;;;;;38.00;34.80;;;;;18.69;67.34;98981.75;5102247;28;9692;-82
2023/06/09 03:47:48;;;;;;;;;43.60;38.40;;;;;18.73;67.36;98975.28;5068535;28;8862;-80
2023/06/09 03:50:20;;;;;;;;;54.00;44.50;;;;;18.67;67.02;98978.34;5068794;28;8854;-80
2023/06/09 03:52:50;;;;;;;;;39.80;35.60;;;;;18.62;66.81;98975.09;5102441;28;8978;-79
2023/06/09 03:55:22;;;;;;;;;34.40;32.60;;;;;18.41;67.44;98985.28;5088661;28;8872;-83
2023/06/09 03:57:52;;;;;;;;;59.50;47.75;;;;;18.56;68.19;98983.47;5106008;28;8993;-81
2023/06/09 04:00:22;;;;;;;;;55.00;45.75;;;;;18.78;68.40;98987.44;5088307;28;8996;-80
2023/06/09 04:02:56;;;;;;;;;56.75;44.25;;;;;18.98;68.80;98991.53;5068426;28;8885;-81
2023/06/09 04:05:27;;;;;;;;;40.20;35.40;;;;;19.04;67.31;98985.78;5084518;28;8867;-82
2023/06/09 04:07:57;;;;;;;;;43.00;34.00;;;;;19.19;66.89;98982.13;5123585;27;8994;-81
2023/06/09 04:10:26;;;;;;;;;41.80;36.00;;;;;19.03;66.18;98984.94;5106713;28;8859;-83
2023/06/09 04:12:55;;;;;;;;;39.20;34.00;;;;;19.24;67.02;98982.66;5090302;28;8844;-83
2023/06/09 04:15:25;;;;;;;;;38.00;34.00;;;;;19.35;66.96;98983.75;5083615;28;9073;-81
2023/06/09 04:17:57;;;;;;;;;38.20;33.80;;;;;19.25;65.93;98986.19;5084676;28;8859;-82
2023/06/09 04:20:34;;;;;;;;;35.20;32.20;;;;;19.36;66.72;98985.47;5049776;28;8848;-79
2023/06/09 04:23:05;;;;;;;;;42.20;36.00;;;;;19.47;65.79;98986.47;5063229;28;8871;-80
2023/06/09 04:25:36;;;;;;;;;40.20;34.80;;;;;19.40;64.96;98993.16;5044452;28;8898;-81
2023/06/09 04:28:12;;;;;;;;;37.40;33.40;;;;;19.13;65.35;98987.84;5074879;28;9062;-79
2023/06/09 04:30:43;;;;;;;;;44.60;37.40;;;;;18.70;66.72;98988.78;5020153;28;8860;-82
2023/06/09 04:33:14;;;;;;;;;39.40;35.60;;;;;18.19;68.37;99000.88;5066488;28;8894;-83
2023/06/09 04:35:46;;;;;;;;;45.40;38.40;;;;;18.25;69.12;98998.72;5064230;28;8860;-81
2023/06/09 04:38:20;;;;;;;;;36.40;34.40;;;;;18.51;68.25;98993.56;5033085;28;8974;-83
2023/06/09 04:40:49;;;;;;;;;45.00;38.00;;;;;18.88;68.35;98996.59;5016851;28;8852;-81
2023/06/09 04:43:19;;;;;;;;;46.00;38.60;;;;;19.09;67.17;98995.19;5049766;28;9010;-84
2023/06/09 04:45:55;;;;;;;;;38.60;35.20;;;;;18.89;65.90;98996.50;5049388;28;8878;-80
2023/06/09 04:48:24;;;;;;;;;41.20;34.80;;;;;18.88;66.42;98996.59;5062885;28;8889;-81
2023/06/09 04:50:56;;;;;;;;;37.20;34.60;;;;;19.00;66.21;98998.44;5031314;28;8864;-84
2023/06/09 04:53:26;;;;;;;;;44.00;38.50;;;;;18.73;67.38;98993.06;5015797;28;8959;-82
2023/06/09 04:55:57;;;;;;;;;42.00;35.75;;;;;18.38;69.12;99000.59;5025304;28;8860;-80
2023/06/09 04:58:31;;;;;;;;;38.80;32.80;;;;;18.47;67.09;99005.34;5025761;28;8848;-81
2023/06/09 05:01:01;;;;;;;;;45.00;39.25;;;;;18.04;69.47;99003.50;4991923;28;8973;-80
2023/06/09 05:03:30;;;;;;;;;41.40;36.00;;;;;18.58;68.69;99000.22;4992437;28;8860;-79
2023/06/09 05:06:01;;;;;;;;;39.40;31.00;;;;;18.30;68.22;99011.72;5051894;28;9014;-81
2023/06/09 05:08:31;;;;;;;;;50.00;40.50;;;;;17.73;69.98;99012.44;5047782;28;8852;-81
2023/06/09 05:11:03;;;;;;;;;44.80;38.00;;;;;17.50;71.36;99017.31;5061824;28;8880;-82
2023/06/09 05:13:32;;;;;;;;;61.00;50.25;;;;;17.44;72.09;99020.34;5061247;28;8860;-79
2023/06/09 05:16:03;;;;;;;;;39.20;34.60;;;;;18.00;70.09;99009.94;5011915;28;8861;-79
2023/06/09 05:18:33;;;;;;;;;41.80;37.80;;;;;18.12;68.44;99013.72;5063599;28;8999;-78
2023/06/09 05:21:04;;;;;;;;;42.80;38.00;;;;;18.47;69.03;99013.34;5097069;28;8982;-79
2023/06/09 05:23:34;;;;;;;;;40.60;35.40;;;;;18.76;68.17;99014.16;5082220;28;8858;-81
2023/06/09 05:26:04;;;;;;;;;42.00;35.40;;;;;19.08;67.16;99008.59;5099452;28;8931;-83
2023/06/09 05:28:33;;;;;;;;;47.20;39.00;;;;;18.81;65.51;99000.59;5049829;28;8862;-82
2023/06/09 05:31:02;;;;;;;;;47.60;40.40;;;;;18.55;66.03;99011.03;5081931;28;8863;-82
2023/06/09 05:33:32;;;;;;;;;50.60;42.20;;;;;18.88;64.59;99017.91;5049686;28;8874;-80
2023/06/09 05:36:01;;;;;;;;;42.60;37.20;;;;;19.07;65.34;99018.41;5067453;28;8967;-78
2023/06/09 05:38:32;;;;;;;;;41.80;36.60;;;;;19.38;65.45;99016.41;5039851;28;8850;-77
2023/06/09 05:41:01;;;;;;;;;36.20;33.20;;;;;19.65;64.77;99019.09;5075773;28;9607;-79
2023/06/09 05:43:30;;;;;;;;;47.40;36.40;;;;;19.87;63.35;99028.28;5108567;27;8850;-79
2023/06/09 05:45:59;;;;;;;;;37.80;34.40;;;;;19.64;62.91;99014.69;5080963;28;8886;-79
2023/06/09 05:48:28;;;;;;;;;36.80;32.60;;;;;19.88;62.29;99022.84;5077768;28;8871;-80
2023/06/09 05:50:57;;;;;;;;;39.20;34.80;;;;;19.20;62.89;99022.97;5085700;28;8884;-78
2023/06/09 05:53:27;;;;;;;;;34.60;31.20;;;;;19.23;62.02;99020.91;5066669;28;8871;-80
2023/06/09 05:55:58;;;;;;;;;46.00;38.00;;;;;19.12;62.35;99023.44;5069023;28;8847;-79
2023/06/09 05:58:33;;;;;;;;;39.60;35.00;;;;;19.03;62.55;99029.38;5074484;28;8966;-79
2023/06/09 06:01:03;;;;;;;;;35.40;32.80;;;;;19.03;62.52;99029.38;5085431;28;8852;-79
2023/06/09 06:03:33;;;;;;;;;46.20;39.00;;;;;18.55;64.13;99033.22;5064558;28;8973;-80
2023/06/09 06:06:03;;;;;;;;;45.25;37.75;;;;;18.73;64.15;99036.50;5072664;28;8870;-79
2023/06/09 06:08:32;;;;;;;;;38.60;34.40;;;;;18.80;64.91;99036.16;5086026;28;8855;-77
2023/06/09 06:11:02;;;;;;;;;40.00;36.40;;;;;19.23;64.72;99039.56;5037726;28;8870;-79
2023/06/09 06:13:31;;;;;;;;;34.80;31.80;;;;;19.48;63.74;99044.16;5082814;28;8870;-80
2023/06/09 06:16:01;;;;;;;;;41.20;35.80;;;;;19.72;63.41;99038.19;5069716;28;8901;-79
2023/06/09 06:18:29;;;;;;;;;35.60;31.80;;;;;19.42;62.67;99038.38;5081569;28;8868;-79
2023/06/09 06:20:58;;;;;;;;;34.60;32.40;;;;;19.49;61.99;99047.69;5066731;28;8849;-82
2023/06/09 06:23:27;;;;;;;;;40.40;34.80;;;;;19.29;61.61;99039.19;5066904;28;8854;-79
2023/06/09 06:25:56;;;;;;;;;42.40;36.00;;;;;19.26;61.41;99041.19;5065286;28;8873;-80
2023/06/09 06:28:28;;;;;;;;;42.20;35.80;;;;;19.09;61.79;99048.47;5066966;28;8885;-79
2023/06/09 06:30:57;;;;;;;;;46.25;39.50;;;;;18.14;65.34;99054.38;5069253;28;8854;-81
2023/06/09 06:33:29;;;;;;;;;47.00;37.40;;;;;17.64;67.42;99053.72;5070396;28;8886;-81
2023/06/09 06:35:59;;;;;;;;;44.20;38.00;;;;;17.23;70.16;99061.34;5073735;28;8932;-79
2023/06/09 06:38:28;;;;;;;;;44.60;38.20;;;;;17.57;68.95;99058.53;5069952;28;8909;-76
2023/06/09 06:40:57;;;;;;;;;46.60;38.20;;;;;18.08;68.13;99060.91;5069598;28;8993;-78
2023/06/09 06:43:27;;;;;;;;;47.20;39.80;;;;;18.57;67.53;99054.38;5069393;28;8880;-77
2023/06/09 06:46:01;;;;;;;;;47.80;40.20;;;;;18.92;66.77;99054.88;5069711;28;8858;-77
2023/06/09 06:48:29;;;;;;;;;47.75;39.75;;;;;19.27;66.15;99057.09;5084697;28;8996;-77
2023/06/09 06:50:58;;;;;;;;;46.50;39.25;;;;;19.61;65.18;99056.69;5079469;28;8830;-78
2023/06/09 06:53:27;;;;;;;;;48.50;39.75;;;;;19.71;63.27;99055.16;5069739;28;9592;-79
2023/06/09 06:55:56;;;;;;;;;52.75;43.00;;;;;19.76;62.16;99045.00;5069223;28;8857;-78
2023/06/09 06:58:28;;;;;;;;;56.75;44.50;;;;;19.94;62.66;99055.41;5085009;28;8996;-77
2023/06/09 07:00:57;;;;;;;;;48.25;40.75;;;;;19.97;61.04;99050.72;5068378;28;8850;-77
2023/06/09 07:03:26;;;;;;;;;55.50;45.50;;;;;19.58;61.96;99055.09;5107349;27;8862;-76
2023/06/09 07:05:55;;;;;;;;;48.50;41.00;;;;;19.99;62.61;99056.81;5077215;28;8838;-77
2023/06/09 07:08:24;;;;;;;;;43.25;37.25;;;;;19.59;61.95;99056.78;5087291;28;8860;-78
2023/06/09 07:10:53;;;;;;;;;53.00;43.50;;;;;19.55;63.40;99060.63;5087718;28;8828;-77
2023/06/09 07:13:21;;;;;;;;;52.25;42.25;;;;;19.67;63.30;99051.84;5080583;28;8882;-77
2023/06/09 07:15:52;;;;;;;;;58.00;45.25;;;;;19.76;62.75;99052.16;5072026;28;8869;-76
2023/06/09 07:18:20;;;;;;;;;54.00;41.75;;;;;20.06;63.49;99060.75;5069067;28;8936;-78
2023/06/09 07:20:50;;;;;;;;;53.75;44.75;;;;;20.26;62.51;99059.41;5071337;28;8851;-77
2023/06/09 07:23:19;;;;;;;;;54.50;45.00;;;;;20.46;61.92;99054.50;5052862;28;8863;-78
2023/06/09 07:25:48;;;;;;;;;61.25;48.25;;;;;20.39;60.60;99055.91;5074792;28;8860;-76
2023/06/09 07:28:17;;;;;;;;;59.25;47.00;;;;;20.01;61.00;99057.56;5088125;28;8975;-78
2023/06/09 07:30:46;;;;;;;;;56.00;45.50;;;;;19.05;64.98;99054.94;5087215;28;9666;-78
2023/06/09 07:33:16;;;;;;;;;60.75;47.75;;;;;18.03;68.43;99068.31;5087591;28;8888;-78
2023/06/09 07:35:48;;;;;;;;;56.50;46.25;;;;;17.50;70.90;99073.13;5069319;28;8835;-77
2023/06/09 07:38:17;;;;;;;;;57.75;46.75;;;;;17.75;70.61;99067.22;5068657;28;8854;-76
2023/06/09 07:40:46;;;;;;;;;57.75;46.75;;;;;17.43;72.29;99073.56;5078618;28;8895;-77
2023/06/09 07:43:15;;;;;;;;;60.50;48.50;;;;;17.45;71.71;99067.19;5083989;28;8873;-77
2023/06/09 07:45:46;;;;;;;;;64.00;52.00;;;;;17.96;69.92;99065.09;5075603;28;8966;-76
2023/06/09 07:48:16;;;;;;;;;65.75;53.00;;;;;18.25;68.98;99067.00;5088335;28;8894;-77
2023/06/09 07:50:45;;;;;;;;;63.25;50.75;;;;;18.38;68.30;99061.78;5053680;28;8847;-77
2023/06/09 07:53:29;;;;;;;;;64.00;51.25;;;;;18.07;69.24;99067.16;5079492;28;8865;-77
2023/06/09 07:55:59;;;;;;;;;65.25;50.75;;;;;18.34;68.32;99061.97;5084014;28;8866;-78
2023/06/09 07:58:28;;;;;;;;;64.75;51.50;;;;;18.39;68.43;99064.38;5066906;28;8912;-78
2023/06/09 08:00:57;;;;;;;;;60.50;47.75;;;;;18.49;68.07;99072.63;5069562;28;8904;-77
2023/06/09 08:03:28;;;;;;;;;64.25;50.25;;;;;18.31;69.61;99064.84;5088966;28;8868;-77
2023/06/09 08:05:58;;;;;;;;;64.75;51.75;;;;;18.64;68.35;99066.38;5087331;28;8891;-77
2023/06/09 08:08:28;;;;;;;;;60.75;49.25;;;;;19.06;67.16;99061.97;5070335;28;8864;-77
2023/06/09 08:10:57;;;;;;;;;64.25;52.00;;;;;18.91;66.60;99069.16;5055228;28;8897;-76
2023/06/09 08:13:28;;;;;;;;;58.75;47.50;;;;;18.03;70.10;99072.75;5088157;28;8880;-77
2023/06/09 08:15:58;;;;;;;;;66.00;50.25;;;;;17.97;71.04;99068.66;5087128;28;8863;-78
2023/06/09 08:18:28;;;;;;;;;64.00;51.00;;;;;17.86;71.36;99069.28;5088514;28;8970;-78
2023/06/09 08:20:57;;;;;;;;;66.25;51.75;;;;;18.28;70.43;99070.34;5083836;28;8896;-77
2023/06/09 08:23:26;;;;;;;;;67.25;51.50;;;;;18.16;69.48;99063.13;5080270;28;8995;-78
2023/06/09 08:25:55;;;;;;;;;66.25;53.50;;;;;18.16;70.53;99065.78;5084798;28;8888;-77
2023/06/09 08:28:24;;;;;;;;;60.50;49.00;;;;;18.21;69.60;99065.47;5068596;28;8873;-77
2023/06/09 08:30:53;;;;;;;;;63.00;50.00;;;;;18.05;70.48;99068.22;5097627;28;8888;-78
2023/06/09 08:33:22;;;;;;;;;60.00;48.75;;;;;17.93;70.13;99072.41;5087935;28;8871;-78
2023/06/09 08:35:53;;;;;;;;;68.50;53.50;;;;;17.98;70.56;99071.19;5088323;28;8863;-76
2023/06/09 08:38:22;;;;;;;;;67.25;54.50;;;;;17.72;71.53;99069.22;5088088;28;8859;-76
2023/06/09 08:40:52;;;;;;;;;61.75;49.50;;;;;17.70;71.35;99069.31;5088497;28;8847;-78
2023/06/09 08:43:21;;;;;;;;;65.75;53.25;;;;;17.95;70.53;99065.22;5087875;28;10048;-77
2023/06/09 08:45:52;;;;;;;;;66.75;52.50;;;;;18.76;69.73;99059.41;5064915;28;8864;-77
2023/06/09 08:48:22;;;;;;;;;61.75;49.50;;;;;18.68;67.24;99059.03;5064793;28;8895;-76
2023/06/09 08:50:53;;;;;;;;;61.75;51.25;;;;;19.10;67.55;99062.63;5065029;28;9566;-76
2023/06/09 08:53:22;;;;;;;;;60.50;48.25;;;;;19.17;65.74;99055.97;5064852;28;8868;-78
2023/06/09 08:55:52;;;;;;;;;63.25;50.00;;;;;19.33;64.76;99062.03;5048272;28;8890;-76
2023/06/09 08:58:22;;;;;;;;;63.25;48.25;;;;;18.88;66.27;99064.00;5064818;28;8860;-77
2023/06/09 09:00:52;;;;;;;;;60.75;48.50;;;;;19.80;63.82;99056.31;5048399;28;9613;-77
2023/06/09 09:03:22;;;;;;;;;63.25;49.75;;;;;19.80;63.28;99056.31;5015079;28;9000;-76
2023/06/09 09:05:53;;;;;;;;;60.25;48.00;;;;;19.13;65.31;99052.63;5057696;28;8845;-76
2023/06/09 09:08:21;;;;;;;;;64.00;51.25;;;;;19.12;65.92;99053.59;5058552;28;8942;-78
2023/06/09 09:10:50;;;;;;;;;66.75;52.75;;;;;19.04;66.45;99055.88;5064589;28;8836;-77
2023/06/09 09:13:24;;;;;;;;;62.50;50.00;;;;;18.88;66.66;99052.50;5081237;28;8901;-76
2023/06/09 09:15:54;;;;;;;;;66.00;53.25;;;;;18.67;67.65;99063.53;5065559;28;9030;-77
2023/06/09 09:18:22;;;;;;;;;64.50;52.50;;;;;18.89;67.33;99062.19;5052179;28;8856;-76
2023/06/09 09:20:56;;;;;;;;;64.50;51.00;;;;;19.15;66.05;99054.38;5067747;28;8840;-77
2023/06/09 09:23:30;;;;;;;;;63.75;48.25;;;;;19.03;65.77;99058.69;5087236;28;8987;-77
2023/06/09 09:26:00;;;;;;;;;63.00;50.50;;;;;18.80;66.44;99057.44;5087113;28;8844;-77
2023/06/09 09:28:39;;;;;;;;;60.00;48.50;;;;;19.07;66.70;99049.53;5102933;28;8871;-78
2023/06/09 09:31:09;;;;;;;;;66.25;52.50;;;;;20.05;64.02;99053.72;5085741;28;8917;-76
2023/06/09 09:33:47;;;;;;;;;65.25;51.75;;;;;19.59;64.24;99061.28;5087270;28;8868;-77
2023/06/09 09:36:19;;;;;;;;;64.50;51.25;;;;;19.74;64.88;99049.59;5073129;28;8843;-78
2023/06/09 09:38:49;;;;;;;;;66.00;53.75;;;;;20.46;62.02;99050.03;5087221;28;8965;-77
2023/06/09 09:41:18;;;;;;;;;66.75;52.75;;;;;20.42;61.76;99053.00;5048205;28;9611;-77
2023/06/09 09:43:47;;;;;;;;;64.75;51.00;;;;;20.84;60.35;99056.28;5072619;28;8862;-76
2023/06/09 09:46:20;;;;;;;;;62.75;50.50;;;;;21.16;58.41;99050.47;5083135;28;8843;-75
2023/06/09 09:48:49;;;;;;;;;63.00;50.25;;;;;21.17;58.62;99057.53;5086744;28;8866;-77
2023/06/09 09:51:20;;;;;;;;;57.50;47.00;;;;;20.52;60.18;99051.44;5086996;28;8855;-77
2023/06/09 09:53:51;;;;;;;;;58.75;47.75;;;;;20.46;60.79;99046.50;5087310;28;8867;-76
2023/06/09 09:56:24;;;;;;;;;62.00;49.50;;;;;21.10;59.27;99045.56;5086630;28;8852;-76
2023/06/09 09:58:54;;;;;;;;;66.25;52.75;;;;;21.56;57.86;99036.81;5086566;28;8879;-76
2023/06/09 10:01:25;;;;;;;;;62.25;50.00;;;;;21.99;56.01;99044.28;5086953;28;8844;-77
2023/06/09 10:03:56;;;;;;;;;59.00;47.25;;;;;22.27;54.03;99035.00;5085855;28;8847;-77
2023/06/09 10:06:32;;;;;;;;;67.75;53.75;;;;;20.93;59.16;99050.31;5086631;28;8876;-76
2023/06/09 10:09:03;;;;;;;;;69.75;53.25;;;;;20.65;60.89;99046.94;5086363;28;8894;-77
2023/06/09 10:11:32;;;;;;;;;66.50;52.75;;;;;21.11;60.70;99047.28;5083369;28;8874;-76
2023/06/09 10:14:01;;;;;;;;;66.00;53.75;;;;;21.86;58.19;99043.53;5087866;28;8896;-77
2023/06/09 10:16:31;;;;;;;;;67.00;53.25;;;;;21.74;57.04;99043.47;5068881;28;8862;-78
2023/06/09 10:19:00;;;;;;;;;64.00;52.50;;;;;21.08;58.75;99042.16;5086370;28;8875;-77
2023/06/09 10:21:31;;;;;;;;;65.75;52.25;;;;;20.24;60.83;99045.34;5050257;28;8852;-76
2023/06/09 10:24:00;;;;;;;;;66.50;52.75;;;;;20.19;62.04;99047.44;5086214;28;8875;-76
2023/06/09 10:26:30;;;;;;;;;74.33;64.00;;;;;20.64;61.53;99039.00;5068218;28;8862;-76
2023/06/09 10:28:58;;;;;;;;;67.67;55.67;;;;;21.28;59.48;99027.34;5072898;28;9293;-76
2023/06/09 10:31:31;;;;;;;;;56.67;45.67;;;;;20.94;59.65;99030.66;5075985;28;8888;-76
2023/06/09 10:34:00;;;;;;;;;74.33;62.67;;;;;20.67;60.03;99034.31;5084820;28;9347;-77
2023/06/09 10:36:38;;;;;;;;;72.67;59.33;;;;;20.74;60.65;99032.03;5084119;28;9410;-77
2023/06/09 10:39:18;;;;;;;;;30.50;29.25;;;;;20.96;59.82;99031.38;5081271;28;9262;-77
2023/06/09 10:41:56;;;;;;;;;71.33;61.00;;;;;20.42;60.90;99023.66;5081631;28;9456;-77
2023/06/09 10:44:36;;;;;;;;;70.67;58.67;;;;;21.01;59.75;99023.91;5080490;28;9240;-77
2023/06/09 10:47:05;;;;;;;;;74.00;63.33;;;;;20.82;59.94;99011.00;5062042;28;9273;-76
2023/06/09 10:49:36;;;;;;;;;68.50;56.00;;;;;20.45;61.10;99015.44;5080459;28;9347;-77
2023/06/09 10:52:08;;;;;;;;;74.67;64.00;;;;;20.84;59.57;99014.41;5081447;28;9714;-77
2023/06/09 10:54:37;;;;;;;;;67.67;55.67;;;;;21.13;58.21;99016.81;5082153;28;9344;-77
2023/06/09 10:57:28;;;;;;;;;76.00;66.25;;;;;20.92;58.56;99013.88;5083436;28;9326;-76
2023/06/09 10:59:57;;;;;;;;;68.33;55.00;;;;;21.13;56.94;99005.25;5066000;28;10122;-77
2023/06/09 11:02:26;;;;;;;;;68.33;57.33;;;;;21.35;56.94;98991.13;5085021;28;9079;-77
2023/06/09 11:04:55;;;;;;;;;71.67;61.67;;;;;21.92;55.36;98989.53;5083546;28;9086;-77
2023/06/09 11:07:28;;;;;;;;;67.00;52.67;;;;;21.56;54.95;98997.56;5082013;28;10095;-75
2023/06/09 11:10:33;;;;;;;;;59.00;49.00;;;;;21.23;53.68;98999.09;5073404;28;9059;-79
2023/06/09 11:13:23;;;;;;;;;63.75;52.00;;;;;21.86;53.45;98984.66;5072046;28;8857;-78
2023/06/09 11:16:02;;;;;;;;;74.50;65.25;;;;;22.20;54.87;98982.88;5068962;28;8980;-78
2023/06/09 11:18:32;;;;;;;;;69.50;57.25;;;;;22.69;51.85;98987.03;5052347;28;9939;-76
2023/06/09 11:21:26;;;;;;;;;73.33;64.00;;;;;22.97;51.74;98972.28;5070749;28;9556;-77
2023/06/09 11:24:04;;;;;;;;;70.33;59.67;;;;;23.71;50.29;98974.22;5076224;28;9419;-77
2023/06/09 11:26:37;;;;;;;;;66.67;55.33;;;;;24.24;48.50;98972.44;5088067;28;9529;-79
2023/06/09 11:29:21;;;;;;;;;69.67;56.33;;;;;24.93;46.62;98963.66;5049953;28;9438;-76
2023/06/09 11:31:51;;;;;;;;;71.33;58.67;;;;;24.65;45.26;98963.41;5074701;28;9193;-77
2023/06/09 11:34:49;;;;;;;;;70.75;60.75;;;;;24.50;45.31;98956.72;5084360;28;9311;-78
2023/06/09 11:37:20;;;;;;;;;75.75;68.75;;;;;24.14;45.21;98956.28;5114666;27;10378;-75
2023/06/09 11:39:51;;;;;;;;;75.25;67.50;;;;;24.16;44.59;98957.00;5091325;28;10956;-78
2023/06/09 11:42:20;;;;;;;;;78.00;74.00;;;;;24.03;44.12;98948.28;5087199;28;10623;-76